KHCO

Hallock Municipal Airport

Hallock, Minnesota, USA
METAR KHCO 221515Z AUTO 16007KT 10SM CLR 21/14 A2996 RMK AO2
Observed Flight Rules
May-22 @ 15:15 UTC (10 minutes ago) Visual Flight Rules
Wind Visibility Clouds
160° at 7 knots 10 miles
  • Clear skies
Temperatures Readings
Current 21°C / 70°F
Dewpoint 14°C / 57°F
Humidity 64%
Altimeter 29.96" Hg
Pressure 1015 hPa
Elevation 250
METAR KHCO 221515Z AUTO 16007KT 10SM CLR 21/14 A2996 RMK AO2
Observed Flight Rules
May-22 @ 15:15 UTC
(10 minutes ago)
VFR
Wind Visibility
160° at 7 knots 10 miles
Clouds
  • Clear skies
Temperature Dewpoint
21°C / 70°F 14°C / 57°F
Humidity Altimeter Pressure
64% 29.96" Hg 1015 hPa